Terminal Aerodrome Forecast
Issued by NWS Green Bay, WI

Home | Current Version | Previous Version | Graphics & Text | Print | Product List | Glossary On
Versions: 1 2 3 4 5 6 7 8 9 10 11 12 13 14 15 16 17 18 19 20 21 22 23 24 25 26 27 28 29 30
000
FTUS43 KGRB 271125
TAFGRB
TAF
KGRB 271125Z 2712/2812 00000KT P6SM SKC
      TEMPO 2712/2713 3SM BR
     FM271500 15006KT P6SM FEW050 SCT200
     FM280100 VRB03KT P6SM SKC
      TEMPO 2810/2812 5SM BR=

USA.gov is the U.S. government's official web portal to all federal, state and local government web resources and services.